sensor_id;sensor_type;location;lat;lon;timestamp;P1;durP1;ratioP1;P2;durP2;ratioP2
9094;SDS011;4583;49.796;9.902;2023-09-19T00:09:52;2.17;;;0.87;;
9094;SDS011;4583;49.796;9.902;2023-09-19T00:19:53;1.73;;;1.00;;
9094;SDS011;4583;49.796;9.902;2023-09-19T00:29:55;2.57;;;1.00;;
9094;SDS011;4583;49.796;9.902;2023-09-19T00:39:57;5.43;;;1.00;;
9094;SDS011;4583;49.796;9.902;2023-09-19T00:49:59;2.03;;;1.00;;
9094;SDS011;4583;49.796;9.902;2023-09-19T01:00:01;4.47;;;1.00;;
9094;SDS011;4583;49.796;9.902;2023-09-19T01:10:08;1.00;;;1.00;;
9094;SDS011;4583;49.796;9.902;2023-09-19T01:20:17;4.53;;;1.10;;
9094;SDS011;4583;49.796;9.902;2023-09-19T01:30:32;2.80;;;1.17;;
9094;SDS011;4583;49.796;9.902;2023-09-19T01:40:36;5.13;;;1.20;;
9094;SDS011;4583;49.796;9.902;2023-09-19T01:50:48;2.37;;;1.40;;
9094;SDS011;4583;49.796;9.902;2023-09-19T02:00:54;1.70;;;1.10;;
9094;SDS011;4583;49.796;9.902;2023-09-19T02:10:56;2.93;;;1.40;;
9094;SDS011;4583;49.796;9.902;2023-09-19T02:20:59;5.30;;;1.30;;
9094;SDS011;4583;49.796;9.902;2023-09-19T02:31:01;2.33;;;1.43;;
9094;SDS011;4583;49.796;9.902;2023-09-19T02:41:03;3.13;;;1.73;;
9094;SDS011;4583;49.796;9.902;2023-09-19T02:51:05;3.20;;;1.70;;
9094;SDS011;4583;49.796;9.902;2023-09-19T03:01:10;6.33;;;2.00;;
9094;SDS011;4583;49.796;9.902;2023-09-19T03:11:14;5.03;;;1.80;;
9094;SDS011;4583;49.796;9.902;2023-09-19T03:21:17;2.70;;;2.00;;
9094;SDS011;4583;49.796;9.902;2023-09-19T03:31:20;5.47;;;1.90;;
9094;SDS011;4583;49.796;9.902;2023-09-19T03:41:22;2.33;;;2.10;;
9094;SDS011;4583;49.796;9.902;2023-09-19T03:51:24;3.23;;;2.00;;
9094;SDS011;4583;49.796;9.902;2023-09-19T04:01:26;2.43;;;1.70;;
9094;SDS011;4583;49.796;9.902;2023-09-19T04:11:30;2.70;;;1.60;;
9094;SDS011;4583;49.796;9.902;2023-09-19T04:21:32;2.77;;;1.63;;
9094;SDS011;4583;49.796;9.902;2023-09-19T04:31:34;5.10;;;1.70;;
9094;SDS011;4583;49.796;9.902;2023-09-19T04:41:36;4.50;;;2.20;;
9094;SDS011;4583;49.796;9.902;2023-09-19T04:51:40;2.20;;;1.60;;
9094;SDS011;4583;49.796;9.902;2023-09-19T05:01:43;4.17;;;1.60;;
9094;SDS011;4583;49.796;9.902;2023-09-19T05:11:46;3.23;;;1.70;;
9094;SDS011;4583;49.796;9.902;2023-09-19T05:21:48;2.37;;;1.60;;
9094;SDS011;4583;49.796;9.902;2023-09-19T05:31:50;5.77;;;1.97;;
9094;SDS011;4583;49.796;9.902;2023-09-19T05:41:52;1.90;;;1.60;;
9094;SDS011;4583;49.796;9.902;2023-09-19T05:51:54;2.47;;;1.90;;
9094;SDS011;4583;49.796;9.902;2023-09-19T06:02:00;3.83;;;2.60;;
9094;SDS011;4583;49.796;9.902;2023-09-19T06:12:02;3.80;;;2.03;;
9094;SDS011;4583;49.796;9.902;2023-09-19T06:22:05;4.93;;;2.67;;
9094;SDS011;4583;49.796;9.902;2023-09-19T06:32:08;5.53;;;2.73;;
9094;SDS011;4583;49.796;9.902;2023-09-19T06:42:11;5.30;;;2.47;;
9094;SDS011;4583;49.796;9.902;2023-09-19T06:52:14;3.93;;;2.20;;
9094;SDS011;4583;49.796;9.902;2023-09-19T07:02:16;8.10;;;2.90;;
9094;SDS011;4583;49.796;9.902;2023-09-19T07:12:19;2.73;;;2.10;;
9094;SDS011;4583;49.796;9.902;2023-09-19T07:22:22;3.97;;;2.80;;
9094;SDS011;4583;49.796;9.902;2023-09-19T07:32:25;5.13;;;3.20;;
9094;SDS011;4583;49.796;9.902;2023-09-19T07:42:27;3.67;;;2.20;;
9094;SDS011;4583;49.796;9.902;2023-09-19T07:52:29;3.90;;;2.40;;
9094;SDS011;4583;49.796;9.902;2023-09-19T08:02:34;6.07;;;2.47;;
9094;SDS011;4583;49.796;9.902;2023-09-19T08:12:42;5.10;;;2.63;;
9094;SDS011;4583;49.796;9.902;2023-09-19T08:22:48;5.20;;;2.27;;
9094;SDS011;4583;49.796;9.902;2023-09-19T08:32:59;5.97;;;2.20;;
9094;SDS011;4583;49.796;9.902;2023-09-19T08:43:01;4.20;;;2.23;;
9094;SDS011;4583;49.796;9.902;2023-09-19T08:53:06;6.17;;;2.20;;
9094;SDS011;4583;49.796;9.902;2023-09-19T09:03:13;7.30;;;2.60;;
9094;SDS011;4583;49.796;9.902;2023-09-19T09:13:16;6.20;;;1.90;;
9094;SDS011;4583;49.796;9.902;2023-09-19T09:23:19;3.03;;;1.60;;
9094;SDS011;4583;49.796;9.902;2023-09-19T09:33:21;4.57;;;1.97;;
9094;SDS011;4583;49.796;9.902;2023-09-19T09:43:33;4.23;;;1.80;;
9094;SDS011;4583;49.796;9.902;2023-09-19T09:53:37;2.20;;;1.80;;
9094;SDS011;4583;49.796;9.902;2023-09-19T10:03:39;3.30;;;1.73;;
9094;SDS011;4583;49.796;9.902;2023-09-19T10:13:45;3.77;;;2.10;;
9094;SDS011;4583;49.796;9.902;2023-09-19T10:23:48;4.67;;;2.30;;
9094;SDS011;4583;49.796;9.902;2023-09-19T10:33:54;4.67;;;2.00;;
9094;SDS011;4583;49.796;9.902;2023-09-19T10:43:57;4.83;;;3.10;;
9094;SDS011;4583;49.796;9.902;2023-09-19T10:54:08;2.80;;;2.00;;
9094;SDS011;4583;49.796;9.902;2023-09-19T11:04:21;6.17;;;2.30;;
9094;SDS011;4583;49.796;9.902;2023-09-19T11:24:29;3.13;;;1.80;;
9094;SDS011;4583;49.796;9.902;2023-09-19T11:44:37;3.60;;;2.00;;
9094;SDS011;4583;49.796;9.902;2023-09-19T11:54:39;4.87;;;2.10;;
9094;SDS011;4583;49.796;9.902;2023-09-19T12:04:43;3.13;;;2.00;;
9094;SDS011;4583;49.796;9.902;2023-09-19T12:14:49;2.63;;;1.67;;
9094;SDS011;4583;49.796;9.902;2023-09-19T12:24:51;3.30;;;1.60;;
9094;SDS011;4583;49.796;9.902;2023-09-19T12:34:55;2.53;;;1.40;;
9094;SDS011;4583;49.796;9.902;2023-09-19T12:44:57;3.80;;;1.60;;
9094;SDS011;4583;49.796;9.902;2023-09-19T12:55:02;2.90;;;1.50;;
9094;SDS011;4583;49.796;9.902;2023-09-19T13:05:04;3.40;;;1.80;;
9094;SDS011;4583;49.796;9.902;2023-09-19T13:15:11;4.10;;;1.80;;
9094;SDS011;4583;49.796;9.902;2023-09-19T13:25:15;2.43;;;1.87;;
9094;SDS011;4583;49.796;9.902;2023-09-19T13:35:20;10.50;;;1.97;;
9094;SDS011;4583;49.796;9.902;2023-09-19T13:45:22;6.07;;;3.00;;
9094;SDS011;4583;49.796;9.902;2023-09-19T13:55:25;3.73;;;2.13;;
9094;SDS011;4583;49.796;9.902;2023-09-19T14:05:27;5.60;;;2.10;;
9094;SDS011;4583;49.796;9.902;2023-09-19T14:15:31;4.50;;;1.60;;
9094;SDS011;4583;49.796;9.902;2023-09-19T14:25:36;2.87;;;1.63;;
9094;SDS011;4583;49.796;9.902;2023-09-19T14:35:39;3.23;;;1.73;;
9094;SDS011;4583;49.796;9.902;2023-09-19T14:45:41;2.87;;;1.73;;
9094;SDS011;4583;49.796;9.902;2023-09-19T14:55:43;4.60;;;1.63;;
9094;SDS011;4583;49.796;9.902;2023-09-19T15:05:46;5.37;;;1.90;;
9094;SDS011;4583;49.796;9.902;2023-09-19T15:15:48;2.80;;;1.67;;
9094;SDS011;4583;49.796;9.902;2023-09-19T15:25:50;6.03;;;1.93;;
9094;SDS011;4583;49.796;9.902;2023-09-19T15:35:52;3.00;;;1.67;;
9094;SDS011;4583;49.796;9.902;2023-09-19T15:46:00;3.40;;;1.67;;
9094;SDS011;4583;49.796;9.902;2023-09-19T15:56:05;5.93;;;1.90;;
9094;SDS011;4583;49.796;9.902;2023-09-19T16:06:11;4.70;;;2.00;;
9094;SDS011;4583;49.796;9.902;2023-09-19T16:16:15;2.50;;;1.63;;
9094;SDS011;4583;49.796;9.902;2023-09-19T16:26:18;4.70;;;2.57;;
9094;SDS011;4583;49.796;9.902;2023-09-19T16:36:24;4.73;;;2.70;;
9094;SDS011;4583;49.796;9.902;2023-09-19T16:46:26;3.40;;;1.60;;
9094;SDS011;4583;49.796;9.902;2023-09-19T16:56:28;3.93;;;1.80;;
9094;SDS011;4583;49.796;9.902;2023-09-19T17:06:34;3.07;;;1.37;;
9094;SDS011;4583;49.796;9.902;2023-09-19T17:16:37;4.17;;;2.07;;
9094;SDS011;4583;49.796;9.902;2023-09-19T17:26:39;4.87;;;1.47;;
9094;SDS011;4583;49.796;9.902;2023-09-19T17:36:44;3.70;;;1.60;;
9094;SDS011;4583;49.796;9.902;2023-09-19T17:46:46;6.10;;;2.33;;
9094;SDS011;4583;49.796;9.902;2023-09-19T17:56:49;5.93;;;1.80;;
9094;SDS011;4583;49.796;9.902;2023-09-19T18:06:51;4.50;;;2.17;;
9094;SDS011;4583;49.796;9.902;2023-09-19T18:16:53;3.13;;;2.10;;
9094;SDS011;4583;49.796;9.902;2023-09-19T18:26:58;2.20;;;1.40;;
9094;SDS011;4583;49.796;9.902;2023-09-19T18:37:00;3.37;;;1.80;;
9094;SDS011;4583;49.796;9.902;2023-09-19T18:47:04;4.93;;;1.80;;
9094;SDS011;4583;49.796;9.902;2023-09-19T18:57:05;4.33;;;1.83;;
9094;SDS011;4583;49.796;9.902;2023-09-19T19:07:07;5.50;;;1.50;;
9094;SDS011;4583;49.796;9.902;2023-09-19T19:17:12;4.17;;;1.53;;
9094;SDS011;4583;49.796;9.902;2023-09-19T19:27:17;5.33;;;1.90;;
9094;SDS011;4583;49.796;9.902;2023-09-19T19:37:19;4.03;;;1.53;;
9094;SDS011;4583;49.796;9.902;2023-09-19T19:47:21;3.17;;;1.70;;
9094;SDS011;4583;49.796;9.902;2023-09-19T19:57:26;3.80;;;2.00;;
9094;SDS011;4583;49.796;9.902;2023-09-19T20:07:28;2.57;;;1.80;;
9094;SDS011;4583;49.796;9.902;2023-09-19T20:17:30;5.17;;;2.30;;
9094;SDS011;4583;49.796;9.902;2023-09-19T20:27:32;3.87;;;2.27;;
9094;SDS011;4583;49.796;9.902;2023-09-19T20:37:34;4.43;;;2.10;;
9094;SDS011;4583;49.796;9.902;2023-09-19T20:47:38;4.20;;;2.20;;
9094;SDS011;4583;49.796;9.902;2023-09-19T20:57:41;5.07;;;2.27;;
9094;SDS011;4583;49.796;9.902;2023-09-19T21:07:42;5.77;;;2.33;;
9094;SDS011;4583;49.796;9.902;2023-09-19T21:17:45;2.57;;;1.93;;
9094;SDS011;4583;49.796;9.902;2023-09-19T21:27:48;5.20;;;2.00;;
9094;SDS011;4583;49.796;9.902;2023-09-19T21:37:49;5.17;;;2.10;;
9094;SDS011;4583;49.796;9.902;2023-09-19T21:47:51;3.60;;;2.27;;
9094;SDS011;4583;49.796;9.902;2023-09-19T21:57:53;4.70;;;2.30;;
9094;SDS011;4583;49.796;9.902;2023-09-19T22:07:57;4.20;;;1.97;;
9094;SDS011;4583;49.796;9.902;2023-09-19T22:17:59;3.90;;;2.13;;
9094;SDS011;4583;49.796;9.902;2023-09-19T22:28:01;4.73;;;2.00;;
9094;SDS011;4583;49.796;9.902;2023-09-19T22:38:04;4.60;;;2.27;;
9094;SDS011;4583;49.796;9.902;2023-09-19T22:48:15;3.73;;;2.00;;
9094;SDS011;4583;49.796;9.902;2023-09-19T22:58:17;5.30;;;2.00;;
9094;SDS011;4583;49.796;9.902;2023-09-19T23:08:18;6.00;;;2.23;;
9094;SDS011;4583;49.796;9.902;2023-09-19T23:18:23;3.50;;;2.00;;
9094;SDS011;4583;49.796;9.902;2023-09-19T23:28:28;3.43;;;2.20;;
9094;SDS011;4583;49.796;9.902;2023-09-19T23:38:34;3.30;;;2.10;;
9094;SDS011;4583;49.796;9.902;2023-09-19T23:48:39;2.40;;;1.80;;
9094;SDS011;4583;49.796;9.902;2023-09-19T23:58:42;2.63;;;1.87;;
